EGNM

Leeds Bradford Airport

Leeds, United Kingdom
METAR EGNM 182250Z VRB02KT 9999 FEW020 05/04 Q0998
Observed Flight Rules
Dec-18 @ 22:50 UTC (31 minutes ago) Visual Flight Rules
Wind Visibility Clouds
Variable at 2 knots 10,000+ meters
  • Few at 2,000' AGL
Temperatures Readings
Current 5°C / 41°F
Dewpoint 4°C / 39°F
Humidity 93%
Altimeter 29.47" Hg
Pressure 998 hPa
Elevation 208
METAR EGNM 182250Z VRB02KT 9999 FEW020 05/04 Q0998
Observed Flight Rules
Dec-18 @ 22:50 UTC
(31 minutes ago)
VFR
Wind Visibility
Variable at 2 knots 10,000+ meters
Clouds
  • Few at 2,000' AGL
Temperature Dewpoint
5°C / 41°F 4°C / 39°F
Humidity Altimeter Pressure
93% 29.47" Hg 998 hPa